sensor_id;sensor_type;location;lat;lon;timestamp;temperature;humidity
6841;DHT22;3458;53.678;14.080;2022-10-16T00:00:31;15.00;99.90
6841;DHT22;3458;53.678;14.080;2022-10-16T00:02:57;14.90;99.90
6841;DHT22;3458;53.678;14.080;2022-10-16T00:05:22;14.90;99.90
6841;DHT22;3458;53.678;14.080;2022-10-16T00:07:48;14.90;99.90
6841;DHT22;3458;53.678;14.080;2022-10-16T00:10:14;15.00;99.90
6841;DHT22;3458;53.678;14.080;2022-10-16T00:12:39;14.90;99.90
6841;DHT22;3458;53.678;14.080;2022-10-16T00:15:05;14.90;99.90
6841;DHT22;3458;53.678;14.080;2022-10-16T00:17:31;14.90;99.90
6841;DHT22;3458;53.678;14.080;2022-10-16T00:19:57;14.90;99.90
6841;DHT22;3458;53.678;14.080;2022-10-16T00:22:23;14.90;99.90
6841;DHT22;3458;53.678;14.080;2022-10-16T00:24:48;14.90;99.90
6841;DHT22;3458;53.678;14.080;2022-10-16T00:27:14;14.90;99.90
6841;DHT22;3458;53.678;14.080;2022-10-16T00:29:39;14.90;99.90
6841;DHT22;3458;53.678;14.080;2022-10-16T00:32:05;14.90;99.90
6841;DHT22;3458;53.678;14.080;2022-10-16T00:34:31;14.90;99.90
6841;DHT22;3458;53.678;14.080;2022-10-16T00:36:56;14.90;99.90
6841;DHT22;3458;53.678;14.080;2022-10-16T00:39:22;14.90;99.90
6841;DHT22;3458;53.678;14.080;2022-10-16T00:41:47;14.90;99.90
6841;DHT22;3458;53.678;14.080;2022-10-16T00:44:42;14.90;99.90
6841;DHT22;3458;53.678;14.080;2022-10-16T00:47:11;14.90;99.90
6841;DHT22;3458;53.678;14.080;2022-10-16T00:49:38;14.90;99.90
6841;DHT22;3458;53.678;14.080;2022-10-16T00:52:04;15.00;99.90
6841;DHT22;3458;53.678;14.080;2022-10-16T00:54:31;15.00;99.90
6841;DHT22;3458;53.678;14.080;2022-10-16T00:57:03;15.00;99.90
6841;DHT22;3458;53.678;14.080;2022-10-16T00:59:36;15.00;99.90
6841;DHT22;3458;53.678;14.080;2022-10-16T01:02:03;14.90;99.90
6841;DHT22;3458;53.678;14.080;2022-10-16T01:04:34;14.90;99.90
6841;DHT22;3458;53.678;14.080;2022-10-16T01:10:14;14.90;99.90
6841;DHT22;3458;53.678;14.080;2022-10-16T01:12:54;14.90;99.90
6841;DHT22;3458;53.678;14.080;2022-10-16T01:18:37;14.90;99.90
6841;DHT22;3458;53.678;14.080;2022-10-16T01:21:07;14.90;99.90
6841;DHT22;3458;53.678;14.080;2022-10-16T01:26:28;15.00;99.90
6841;DHT22;3458;53.678;14.080;2022-10-16T01:29:18;15.00;99.90
6841;DHT22;3458;53.678;14.080;2022-10-16T01:31:49;15.00;99.90
6841;DHT22;3458;53.678;14.080;2022-10-16T01:34:48;15.00;99.90
6841;DHT22;3458;53.678;14.080;2022-10-16T01:37:18;15.00;99.90
6841;DHT22;3458;53.678;14.080;2022-10-16T01:39:46;15.00;99.90
6841;DHT22;3458;53.678;14.080;2022-10-16T01:42:23;15.00;99.90
6841;DHT22;3458;53.678;14.080;2022-10-16T01:44:51;15.00;99.90
6841;DHT22;3458;53.678;14.080;2022-10-16T01:47:21;15.00;99.90
6841;DHT22;3458;53.678;14.080;2022-10-16T01:49:47;15.00;99.90
6841;DHT22;3458;53.678;14.080;2022-10-16T01:52:16;15.00;99.90
6841;DHT22;3458;53.678;14.080;2022-10-16T01:54:45;15.00;99.90
6841;DHT22;3458;53.678;14.080;2022-10-16T01:57:12;15.00;99.90
6841;DHT22;3458;53.678;14.080;2022-10-16T01:59:46;15.00;99.90
6841;DHT22;3458;53.678;14.080;2022-10-16T02:02:13;15.10;99.90
6841;DHT22;3458;53.678;14.080;2022-10-16T02:04:46;15.10;99.90
6841;DHT22;3458;53.678;14.080;2022-10-16T02:07:14;15.10;99.90
6841;DHT22;3458;53.678;14.080;2022-10-16T02:09:40;15.10;99.90
6841;DHT22;3458;53.678;14.080;2022-10-16T02:12:16;15.10;99.90
6841;DHT22;3458;53.678;14.080;2022-10-16T02:14:44;15.10;99.90
6841;DHT22;3458;53.678;14.080;2022-10-16T02:17:15;15.10;99.90
6841;DHT22;3458;53.678;14.080;2022-10-16T02:19:42;15.10;99.90
6841;DHT22;3458;53.678;14.080;2022-10-16T02:22:14;15.10;99.90
6841;DHT22;3458;53.678;14.080;2022-10-16T02:24:51;15.10;99.90
6841;DHT22;3458;53.678;14.080;2022-10-16T02:28:06;15.10;99.90
6841;DHT22;3458;53.678;14.080;2022-10-16T02:30:45;15.10;99.90
6841;DHT22;3458;53.678;14.080;2022-10-16T02:33:13;15.10;99.90
6841;DHT22;3458;53.678;14.080;2022-10-16T02:35:41;15.10;99.90
6841;DHT22;3458;53.678;14.080;2022-10-16T02:38:09;15.10;99.90
6841;DHT22;3458;53.678;14.080;2022-10-16T02:40:36;15.10;99.90
6841;DHT22;3458;53.678;14.080;2022-10-16T02:43:04;15.10;99.90
6841;DHT22;3458;53.678;14.080;2022-10-16T02:45:30;15.10;99.90
6841;DHT22;3458;53.678;14.080;2022-10-16T02:47:55;15.10;99.90
6841;DHT22;3458;53.678;14.080;2022-10-16T02:50:21;15.10;99.90
6841;DHT22;3458;53.678;14.080;2022-10-16T02:52:47;15.10;99.90
6841;DHT22;3458;53.678;14.080;2022-10-16T02:55:13;15.10;99.90
6841;DHT22;3458;53.678;14.080;2022-10-16T02:57:38;15.10;99.90
6841;DHT22;3458;53.678;14.080;2022-10-16T03:00:08;15.10;99.90
6841;DHT22;3458;53.678;14.080;2022-10-16T03:02:35;15.10;99.90
6841;DHT22;3458;53.678;14.080;2022-10-16T03:05:00;15.10;99.90
6841;DHT22;3458;53.678;14.080;2022-10-16T03:07:26;15.10;99.90
6841;DHT22;3458;53.678;14.080;2022-10-16T03:09:51;15.10;99.90
6841;DHT22;3458;53.678;14.080;2022-10-16T03:12:17;15.10;99.90
6841;DHT22;3458;53.678;14.080;2022-10-16T03:14:43;15.10;99.90
6841;DHT22;3458;53.678;14.080;2022-10-16T03:17:08;15.10;99.90
6841;DHT22;3458;53.678;14.080;2022-10-16T03:19:34;15.10;99.90
6841;DHT22;3458;53.678;14.080;2022-10-16T03:22:01;15.10;99.90
6841;DHT22;3458;53.678;14.080;2022-10-16T03:24:27;15.10;99.90
6841;DHT22;3458;53.678;14.080;2022-10-16T03:26:52;15.00;99.90
6841;DHT22;3458;53.678;14.080;2022-10-16T03:29:18;15.00;99.90
6841;DHT22;3458;53.678;14.080;2022-10-16T03:31:43;15.00;99.90
6841;DHT22;3458;53.678;14.080;2022-10-16T03:34:09;15.00;99.90
6841;DHT22;3458;53.678;14.080;2022-10-16T03:36:34;15.00;99.90
6841;DHT22;3458;53.678;14.080;2022-10-16T03:39:00;15.00;99.90
6841;DHT22;3458;53.678;14.080;2022-10-16T03:41:25;15.00;99.90
6841;DHT22;3458;53.678;14.080;2022-10-16T03:43:51;15.00;99.90
6841;DHT22;3458;53.678;14.080;2022-10-16T03:46:16;15.00;99.90
6841;DHT22;3458;53.678;14.080;2022-10-16T03:48:42;15.00;99.90
6841;DHT22;3458;53.678;14.080;2022-10-16T03:51:07;15.00;99.90
6841;DHT22;3458;53.678;14.080;2022-10-16T03:53:33;15.00;99.90
6841;DHT22;3458;53.678;14.080;2022-10-16T03:55:58;15.00;99.90
6841;DHT22;3458;53.678;14.080;2022-10-16T03:58:24;15.00;99.90
6841;DHT22;3458;53.678;14.080;2022-10-16T04:00:50;14.90;99.90
6841;DHT22;3458;53.678;14.080;2022-10-16T04:03:15;14.90;99.90
6841;DHT22;3458;53.678;14.080;2022-10-16T04:05:41;14.90;99.90
6841;DHT22;3458;53.678;14.080;2022-10-16T04:08:06;14.90;99.90
6841;DHT22;3458;53.678;14.080;2022-10-16T04:10:32;14.90;99.90
6841;DHT22;3458;53.678;14.080;2022-10-16T04:12:57;14.90;99.90
6841;DHT22;3458;53.678;14.080;2022-10-16T04:15:23;14.90;99.90
6841;DHT22;3458;53.678;14.080;2022-10-16T04:17:50;14.80;99.90
6841;DHT22;3458;53.678;14.080;2022-10-16T04:20:16;14.80;99.90
6841;DHT22;3458;53.678;14.080;2022-10-16T04:22:42;14.80;99.90
6841;DHT22;3458;53.678;14.080;2022-10-16T04:25:07;14.80;99.90
6841;DHT22;3458;53.678;14.080;2022-10-16T04:27:33;14.80;99.90
6841;DHT22;3458;53.678;14.080;2022-10-16T04:29:59;14.80;99.90
6841;DHT22;3458;53.678;14.080;2022-10-16T04:32:25;14.80;99.90
6841;DHT22;3458;53.678;14.080;2022-10-16T04:34:51;14.80;99.90
6841;DHT22;3458;53.678;14.080;2022-10-16T04:37:16;14.80;99.90
6841;DHT22;3458;53.678;14.080;2022-10-16T04:39:42;14.80;99.90
6841;DHT22;3458;53.678;14.080;2022-10-16T04:42:07;14.70;99.90
6841;DHT22;3458;53.678;14.080;2022-10-16T04:44:33;14.70;99.90
6841;DHT22;3458;53.678;14.080;2022-10-16T04:46:59;14.70;99.90
6841;DHT22;3458;53.678;14.080;2022-10-16T04:49:24;14.70;99.90
6841;DHT22;3458;53.678;14.080;2022-10-16T04:51:50;14.70;99.90
6841;DHT22;3458;53.678;14.080;2022-10-16T04:54:15;14.70;99.90
6841;DHT22;3458;53.678;14.080;2022-10-16T04:56:41;14.60;99.90
6841;DHT22;3458;53.678;14.080;2022-10-16T04:59:16;14.60;99.90
6841;DHT22;3458;53.678;14.080;2022-10-16T05:01:42;14.60;99.90
6841;DHT22;3458;53.678;14.080;2022-10-16T05:04:08;14.60;99.90
6841;DHT22;3458;53.678;14.080;2022-10-16T05:06:34;14.60;99.90
6841;DHT22;3458;53.678;14.080;2022-10-16T05:09:00;14.60;99.90
6841;DHT22;3458;53.678;14.080;2022-10-16T05:11:25;14.60;99.90
6841;DHT22;3458;53.678;14.080;2022-10-16T05:13:51;14.60;99.90
6841;DHT22;3458;53.678;14.080;2022-10-16T05:16:16;14.60;99.90
6841;DHT22;3458;53.678;14.080;2022-10-16T05:18:42;14.50;99.90
6841;DHT22;3458;53.678;14.080;2022-10-16T05:21:08;14.50;99.90
6841;DHT22;3458;53.678;14.080;2022-10-16T05:23:33;14.50;99.90
6841;DHT22;3458;53.678;14.080;2022-10-16T05:25:59;14.50;99.90
6841;DHT22;3458;53.678;14.080;2022-10-16T05:28:26;14.50;99.90
6841;DHT22;3458;53.678;14.080;2022-10-16T05:30:53;14.50;99.90
6841;DHT22;3458;53.678;14.080;2022-10-16T05:33:23;14.50;99.90
6841;DHT22;3458;53.678;14.080;2022-10-16T05:35:48;14.40;99.90
6841;DHT22;3458;53.678;14.080;2022-10-16T05:38:15;14.40;99.90
6841;DHT22;3458;53.678;14.080;2022-10-16T05:40:41;14.40;99.90
6841;DHT22;3458;53.678;14.080;2022-10-16T05:43:07;14.40;99.90
6841;DHT22;3458;53.678;14.080;2022-10-16T05:45:32;14.40;99.90
6841;DHT22;3458;53.678;14.080;2022-10-16T05:47:58;14.40;99.90
6841;DHT22;3458;53.678;14.080;2022-10-16T05:50:24;14.40;99.90
6841;DHT22;3458;53.678;14.080;2022-10-16T05:52:50;14.30;99.90
6841;DHT22;3458;53.678;14.080;2022-10-16T05:55:15;14.30;99.90
6841;DHT22;3458;53.678;14.080;2022-10-16T05:57:41;14.40;99.90
6841;DHT22;3458;53.678;14.080;2022-10-16T06:00:07;14.30;99.90
6841;DHT22;3458;53.678;14.080;2022-10-16T06:02:32;14.40;99.90
6841;DHT22;3458;53.678;14.080;2022-10-16T06:04:58;14.40;99.90
6841;DHT22;3458;53.678;14.080;2022-10-16T06:07:23;14.30;99.90
6841;DHT22;3458;53.678;14.080;2022-10-16T06:09:53;14.40;99.90
6841;DHT22;3458;53.678;14.080;2022-10-16T06:12:19;14.30;99.90
6841;DHT22;3458;53.678;14.080;2022-10-16T06:14:45;14.30;99.90
6841;DHT22;3458;53.678;14.080;2022-10-16T06:17:13;14.30;99.90
6841;DHT22;3458;53.678;14.080;2022-10-16T06:19:39;14.40;99.90
6841;DHT22;3458;53.678;14.080;2022-10-16T06:22:04;14.40;99.90
6841;DHT22;3458;53.678;14.080;2022-10-16T06:24:30;14.40;99.90
6841;DHT22;3458;53.678;14.080;2022-10-16T06:26:55;14.40;99.90
6841;DHT22;3458;53.678;14.080;2022-10-16T06:29:21;14.40;99.90
6841;DHT22;3458;53.678;14.080;2022-10-16T06:31:47;14.40;99.90
6841;DHT22;3458;53.678;14.080;2022-10-16T06:34:12;14.50;99.90
6841;DHT22;3458;53.678;14.080;2022-10-16T06:36:39;14.50;99.90
6841;DHT22;3458;53.678;14.080;2022-10-16T06:39:05;14.50;99.90
6841;DHT22;3458;53.678;14.080;2022-10-16T06:41:33;14.50;99.90
6841;DHT22;3458;53.678;14.080;2022-10-16T06:43:59;14.50;99.90
6841;DHT22;3458;53.678;14.080;2022-10-16T06:46:25;14.50;99.90
6841;DHT22;3458;53.678;14.080;2022-10-16T06:48:51;14.60;99.90
6841;DHT22;3458;53.678;14.080;2022-10-16T06:51:19;14.60;99.90
6841;DHT22;3458;53.678;14.080;2022-10-16T06:53:46;14.70;99.90
6841;DHT22;3458;53.678;14.080;2022-10-16T06:56:19;14.70;99.90
6841;DHT22;3458;53.678;14.080;2022-10-16T06:58:46;14.70;99.90
6841;DHT22;3458;53.678;14.080;2022-10-16T07:01:13;14.70;99.90
6841;DHT22;3458;53.678;14.080;2022-10-16T07:03:40;14.70;99.90
6841;DHT22;3458;53.678;14.080;2022-10-16T07:06:07;14.70;99.90
6841;DHT22;3458;53.678;14.080;2022-10-16T07:08:34;14.80;99.90
6841;DHT22;3458;53.678;14.080;2022-10-16T07:11:01;14.80;99.90
6841;DHT22;3458;53.678;14.080;2022-10-16T07:13:27;14.80;99.90
6841;DHT22;3458;53.678;14.080;2022-10-16T07:15:53;14.90;99.90
6841;DHT22;3458;53.678;14.080;2022-10-16T07:18:18;14.90;99.90
6841;DHT22;3458;53.678;14.080;2022-10-16T07:20:44;15.00;99.90
6841;DHT22;3458;53.678;14.080;2022-10-16T07:23:10;15.00;99.90
6841;DHT22;3458;53.678;14.080;2022-10-16T07:25:35;15.10;99.90
6841;DHT22;3458;53.678;14.080;2022-10-16T07:28:01;15.10;99.90
6841;DHT22;3458;53.678;14.080;2022-10-16T07:30:26;15.10;99.90
6841;DHT22;3458;53.678;14.080;2022-10-16T07:32:52;15.10;99.90
6841;DHT22;3458;53.678;14.080;2022-10-16T07:35:17;15.10;99.90
6841;DHT22;3458;53.678;14.080;2022-10-16T07:37:46;15.10;99.90
6841;DHT22;3458;53.678;14.080;2022-10-16T07:40:12;15.10;99.90
6841;DHT22;3458;53.678;14.080;2022-10-16T07:42:37;15.10;99.90
6841;DHT22;3458;53.678;14.080;2022-10-16T07:45:04;15.20;99.90
6841;DHT22;3458;53.678;14.080;2022-10-16T07:47:29;15.20;99.90
6841;DHT22;3458;53.678;14.080;2022-10-16T07:49:55;15.20;99.90
6841;DHT22;3458;53.678;14.080;2022-10-16T07:52:20;15.20;99.90
6841;DHT22;3458;53.678;14.080;2022-10-16T07:54:46;15.20;99.90
6841;DHT22;3458;53.678;14.080;2022-10-16T07:57:11;15.30;99.90
6841;DHT22;3458;53.678;14.080;2022-10-16T07:59:37;15.20;99.90
6841;DHT22;3458;53.678;14.080;2022-10-16T08:02:02;15.30;99.90
6841;DHT22;3458;53.678;14.080;2022-10-16T08:04:28;15.30;99.90
6841;DHT22;3458;53.678;14.080;2022-10-16T08:06:53;15.30;99.90
6841;DHT22;3458;53.678;14.080;2022-10-16T08:09:19;15.30;99.90
6841;DHT22;3458;53.678;14.080;2022-10-16T08:11:45;15.30;99.90
6841;DHT22;3458;53.678;14.080;2022-10-16T08:14:10;15.40;99.90
6841;DHT22;3458;53.678;14.080;2022-10-16T08:16:36;15.40;99.90
6841;DHT22;3458;53.678;14.080;2022-10-16T08:19:02;15.40;99.90
6841;DHT22;3458;53.678;14.080;2022-10-16T08:21:28;15.40;99.90
6841;DHT22;3458;53.678;14.080;2022-10-16T08:23:54;15.50;99.90
6841;DHT22;3458;53.678;14.080;2022-10-16T08:26:20;15.50;99.90
6841;DHT22;3458;53.678;14.080;2022-10-16T08:28:46;15.50;99.90
6841;DHT22;3458;53.678;14.080;2022-10-16T08:31:15;15.60;99.90
6841;DHT22;3458;53.678;14.080;2022-10-16T08:33:43;15.60;99.90
6841;DHT22;3458;53.678;14.080;2022-10-16T08:36:09;15.60;99.90
6841;DHT22;3458;53.678;14.080;2022-10-16T08:38:35;15.60;99.90
6841;DHT22;3458;53.678;14.080;2022-10-16T08:49:26;15.70;99.90
6841;DHT22;3458;53.678;14.080;2022-10-16T08:51:52;15.70;99.90
6841;DHT22;3458;53.678;14.080;2022-10-16T08:54:31;15.80;99.90
6841;DHT22;3458;53.678;14.080;2022-10-16T08:57:09;15.80;99.90
6841;DHT22;3458;53.678;14.080;2022-10-16T08:59:34;15.90;99.90
6841;DHT22;3458;53.678;14.080;2022-10-16T09:02:00;15.90;99.90
6841;DHT22;3458;53.678;14.080;2022-10-16T09:04:46;15.90;99.90
6841;DHT22;3458;53.678;14.080;2022-10-16T09:07:43;16.00;99.90
6841;DHT22;3458;53.678;14.080;2022-10-16T09:10:29;16.00;99.90
6841;DHT22;3458;53.678;14.080;2022-10-16T09:13:09;16.10;99.90
6841;DHT22;3458;53.678;14.080;2022-10-16T09:15:47;16.10;99.90
6841;DHT22;3458;53.678;14.080;2022-10-16T09:18:38;16.20;99.90
6841;DHT22;3458;53.678;14.080;2022-10-16T09:21:24;16.40;99.90
6841;DHT22;3458;53.678;14.080;2022-10-16T09:23:51;16.60;99.90
6841;DHT22;3458;53.678;14.080;2022-10-16T09:26:17;16.90;99.90
6841;DHT22;3458;53.678;14.080;2022-10-16T09:28:44;17.00;99.90
6841;DHT22;3458;53.678;14.080;2022-10-16T09:31:16;17.00;99.90
6841;DHT22;3458;53.678;14.080;2022-10-16T09:33:43;17.10;99.90
6841;DHT22;3458;53.678;14.080;2022-10-16T09:36:11;17.20;99.90
6841;DHT22;3458;53.678;14.080;2022-10-16T09:38:37;17.30;99.90
6841;DHT22;3458;53.678;14.080;2022-10-16T09:41:13;17.40;99.90
6841;DHT22;3458;53.678;14.080;2022-10-16T09:43:55;17.60;99.90
6841;DHT22;3458;53.678;14.080;2022-10-16T09:46:25;17.80;99.90
6841;DHT22;3458;53.678;14.080;2022-10-16T09:48:55;18.00;99.90
6841;DHT22;3458;53.678;14.080;2022-10-16T09:51:27;18.20;99.90
6841;DHT22;3458;53.678;14.080;2022-10-16T09:53:57;18.30;99.90
6841;DHT22;3458;53.678;14.080;2022-10-16T09:56:31;18.50;99.90
6841;DHT22;3458;53.678;14.080;2022-10-16T09:59:00;18.70;99.90
6841;DHT22;3458;53.678;14.080;2022-10-16T10:01:35;18.90;99.90
6841;DHT22;3458;53.678;14.080;2022-10-16T10:04:03;19.00;99.90
6841;DHT22;3458;53.678;14.080;2022-10-16T10:06:31;19.10;99.90
6841;DHT22;3458;53.678;14.080;2022-10-16T10:09:15;19.30;99.90
6841;DHT22;3458;53.678;14.080;2022-10-16T10:11:50;19.50;99.90
6841;DHT22;3458;53.678;14.080;2022-10-16T10:16:48;19.70;99.90
6841;DHT22;3458;53.678;14.080;2022-10-16T10:19:22;19.60;99.90
6841;DHT22;3458;53.678;14.080;2022-10-16T10:21:51;19.60;99.90
6841;DHT22;3458;53.678;14.080;2022-10-16T10:24:18;19.40;99.90
6841;DHT22;3458;53.678;14.080;2022-10-16T10:27:00;19.20;99.90
6841;DHT22;3458;53.678;14.080;2022-10-16T10:32:17;18.80;99.90
6841;DHT22;3458;53.678;14.080;2022-10-16T10:34:59;18.90;99.90
6841;DHT22;3458;53.678;14.080;2022-10-16T10:38:00;19.20;99.90
6841;DHT22;3458;53.678;14.080;2022-10-16T10:46:02;19.70;99.90
6841;DHT22;3458;53.678;14.080;2022-10-16T10:48:53;19.90;99.90
6841;DHT22;3458;53.678;14.080;2022-10-16T10:51:21;20.00;99.90
6841;DHT22;3458;53.678;14.080;2022-10-16T10:54:05;20.20;99.90
6841;DHT22;3458;53.678;14.080;2022-10-16T11:04:58;20.60;99.90
6841;DHT22;3458;53.678;14.080;2022-10-16T11:07:34;20.70;99.90
6841;DHT22;3458;53.678;14.080;2022-10-16T11:10:22;20.70;99.90
6841;DHT22;3458;53.678;14.080;2022-10-16T11:12:53;20.80;99.90
6841;DHT22;3458;53.678;14.080;2022-10-16T11:15:32;20.90;99.90
6841;DHT22;3458;53.678;14.080;2022-10-16T11:18:08;21.10;99.90
6841;DHT22;3458;53.678;14.080;2022-10-16T11:20:48;21.20;99.90
6841;DHT22;3458;53.678;14.080;2022-10-16T11:23:25;21.30;99.90
6841;DHT22;3458;53.678;14.080;2022-10-16T11:25:52;21.40;99.90
6841;DHT22;3458;53.678;14.080;2022-10-16T11:28:31;21.50;99.50
6841;DHT22;3458;53.678;14.080;2022-10-16T11:31:33;21.60;99.20
6841;DHT22;3458;53.678;14.080;2022-10-16T11:36:49;21.70;98.60
6841;DHT22;3458;53.678;14.080;2022-10-16T11:39:31;21.60;97.50
6841;DHT22;3458;53.678;14.080;2022-10-16T11:42:13;21.50;97.80
6841;DHT22;3458;53.678;14.080;2022-10-16T11:47:48;21.50;96.90
6841;DHT22;3458;53.678;14.080;2022-10-16T11:53:44;21.70;96.90
6841;DHT22;3458;53.678;14.080;2022-10-16T11:56:18;21.60;95.90
6841;DHT22;3458;53.678;14.080;2022-10-16T11:59:28;21.50;96.30
6841;DHT22;3458;53.678;14.080;2022-10-16T12:01:51;21.40;96.40
6841;DHT22;3458;53.678;14.080;2022-10-16T12:04:39;21.40;96.90
6841;DHT22;3458;53.678;14.080;2022-10-16T12:07:14;21.50;95.10
6841;DHT22;3458;53.678;14.080;2022-10-16T12:09:41;21.50;94.90
6841;DHT22;3458;53.678;14.080;2022-10-16T12:17:48;20.70;96.60
6841;DHT22;3458;53.678;14.080;2022-10-16T12:22:58;20.70;97.20
6841;DHT22;3458;53.678;14.080;2022-10-16T12:27:59;21.00;96.80
6841;DHT22;3458;53.678;14.080;2022-10-16T12:30:28;21.20;96.90
6841;DHT22;3458;53.678;14.080;2022-10-16T12:32:57;21.30;96.30
6841;DHT22;3458;53.678;14.080;2022-10-16T12:35:26;21.60;96.30
6841;DHT22;3458;53.678;14.080;2022-10-16T12:37:53;22.00;95.40
6841;DHT22;3458;53.678;14.080;2022-10-16T12:40:26;22.00;95.10
6841;DHT22;3458;53.678;14.080;2022-10-16T12:42:52;22.30;94.80
6841;DHT22;3458;53.678;14.080;2022-10-16T12:45:30;22.70;93.70
6841;DHT22;3458;53.678;14.080;2022-10-16T12:48:00;22.10;92.90
6841;DHT22;3458;53.678;14.080;2022-10-16T12:50:37;21.50;93.90
6841;DHT22;3458;53.678;14.080;2022-10-16T12:53:21;21.10;94.80
6841;DHT22;3458;53.678;14.080;2022-10-16T12:56:19;20.70;94.30
6841;DHT22;3458;53.678;14.080;2022-10-16T12:58:53;20.30;94.70
6841;DHT22;3458;53.678;14.080;2022-10-16T13:01:45;20.20;95.00
6841;DHT22;3458;53.678;14.080;2022-10-16T13:04:50;20.00;95.40
6841;DHT22;3458;53.678;14.080;2022-10-16T13:07:48;20.20;95.80
6841;DHT22;3458;53.678;14.080;2022-10-16T13:10:26;21.30;95.10
6841;DHT22;3458;53.678;14.080;2022-10-16T13:13:14;22.10;94.50
6841;DHT22;3458;53.678;14.080;2022-10-16T13:16:10;22.70;92.80
6841;DHT22;3458;53.678;14.080;2022-10-16T13:18:35;23.00;91.70
6841;DHT22;3458;53.678;14.080;2022-10-16T13:24:17;23.50;90.60
6841;DHT22;3458;53.678;14.080;2022-10-16T13:26:50;23.80;88.10
6841;DHT22;3458;53.678;14.080;2022-10-16T13:29:18;24.00;87.00
6841;DHT22;3458;53.678;14.080;2022-10-16T13:31:44;23.90;86.40
6841;DHT22;3458;53.678;14.080;2022-10-16T13:34:21;23.50;85.50
6841;DHT22;3458;53.678;14.080;2022-10-16T13:36:49;22.80;87.20
6841;DHT22;3458;53.678;14.080;2022-10-16T13:39:27;22.50;88.60
6841;DHT22;3458;53.678;14.080;2022-10-16T13:42:12;22.00;89.60
6841;DHT22;3458;53.678;14.080;2022-10-16T13:44:44;21.60;90.70
6841;DHT22;3458;53.678;14.080;2022-10-16T13:47:20;21.30;91.60
6841;DHT22;3458;53.678;14.080;2022-10-16T13:49:46;21.60;92.10
6841;DHT22;3458;53.678;14.080;2022-10-16T13:52:19;22.40;91.50
6841;DHT22;3458;53.678;14.080;2022-10-16T13:54:45;22.70;90.40
6841;DHT22;3458;53.678;14.080;2022-10-16T13:57:15;23.10;88.30
6841;DHT22;3458;53.678;14.080;2022-10-16T13:59:44;23.40;87.30
6841;DHT22;3458;53.678;14.080;2022-10-16T14:02:26;22.90;86.30
6841;DHT22;3458;53.678;14.080;2022-10-16T14:04:53;23.20;87.40
6841;DHT22;3458;53.678;14.080;2022-10-16T14:07:27;23.50;86.90
6841;DHT22;3458;53.678;14.080;2022-10-16T14:09:54;23.00;86.30
6841;DHT22;3458;53.678;14.080;2022-10-16T14:12:21;23.30;87.30
6841;DHT22;3458;53.678;14.080;2022-10-16T14:14:48;23.50;86.50
6841;DHT22;3458;53.678;14.080;2022-10-16T14:17:35;23.80;84.40
6841;DHT22;3458;53.678;14.080;2022-10-16T14:20:05;24.20;82.60
6841;DHT22;3458;53.678;14.080;2022-10-16T14:22:41;24.50;80.80
6841;DHT22;3458;53.678;14.080;2022-10-16T14:27:44;24.80;78.50
6841;DHT22;3458;53.678;14.080;2022-10-16T14:30:20;25.00;77.50
6841;DHT22;3458;53.678;14.080;2022-10-16T14:32:58;25.10;77.50
6841;DHT22;3458;53.678;14.080;2022-10-16T14:37:59;24.90;75.70
6841;DHT22;3458;53.678;14.080;2022-10-16T14:40:28;24.80;75.60
6841;DHT22;3458;53.678;14.080;2022-10-16T14:42:54;24.80;75.00
6841;DHT22;3458;53.678;14.080;2022-10-16T14:45:22;24.40;75.10
6841;DHT22;3458;53.678;14.080;2022-10-16T14:47:52;24.30;76.30
6841;DHT22;3458;53.678;14.080;2022-10-16T14:50:18;24.20;75.00
6841;DHT22;3458;53.678;14.080;2022-10-16T14:52:44;24.10;74.90
6841;DHT22;3458;53.678;14.080;2022-10-16T14:55:10;24.50;73.90
6841;DHT22;3458;53.678;14.080;2022-10-16T14:57:37;24.30;74.30
6841;DHT22;3458;53.678;14.080;2022-10-16T15:00:08;24.30;73.90
6841;DHT22;3458;53.678;14.080;2022-10-16T15:02:35;23.50;75.40
6841;DHT22;3458;53.678;14.080;2022-10-16T15:05:22;22.90;77.50
6841;DHT22;3458;53.678;14.080;2022-10-16T15:07:53;22.10;79.00
6841;DHT22;3458;53.678;14.080;2022-10-16T15:10:20;21.70;80.90
6841;DHT22;3458;53.678;14.080;2022-10-16T15:12:46;21.30;82.40
6841;DHT22;3458;53.678;14.080;2022-10-16T15:15:38;21.00;83.80
6841;DHT22;3458;53.678;14.080;2022-10-16T15:18:07;20.80;85.30
6841;DHT22;3458;53.678;14.080;2022-10-16T15:20:37;20.50;86.50
6841;DHT22;3458;53.678;14.080;2022-10-16T15:23:14;20.40;87.30
6841;DHT22;3458;53.678;14.080;2022-10-16T15:25:52;20.20;87.90
6841;DHT22;3458;53.678;14.080;2022-10-16T15:28:18;20.10;89.00
6841;DHT22;3458;53.678;14.080;2022-10-16T15:30:45;20.00;90.00
6841;DHT22;3458;53.678;14.080;2022-10-16T15:33:17;19.80;90.10
6841;DHT22;3458;53.678;14.080;2022-10-16T15:35:46;19.70;90.50
6841;DHT22;3458;53.678;14.080;2022-10-16T15:38:13;19.60;90.80
6841;DHT22;3458;53.678;14.080;2022-10-16T15:40:42;19.50;91.00
6841;DHT22;3458;53.678;14.080;2022-10-16T15:43:08;19.50;91.20
6841;DHT22;3458;53.678;14.080;2022-10-16T15:45:34;19.40;91.50
6841;DHT22;3458;53.678;14.080;2022-10-16T15:47:59;19.30;91.80
6841;DHT22;3458;53.678;14.080;2022-10-16T15:50:26;19.20;92.10
6841;DHT22;3458;53.678;14.080;2022-10-16T15:52:51;19.10;92.30
6841;DHT22;3458;53.678;14.080;2022-10-16T15:55:17;19.00;92.60
6841;DHT22;3458;53.678;14.080;2022-10-16T15:57:44;19.00;93.00
6841;DHT22;3458;53.678;14.080;2022-10-16T16:00:13;18.90;93.30
6841;DHT22;3458;53.678;14.080;2022-10-16T16:02:39;18.80;93.50
6841;DHT22;3458;53.678;14.080;2022-10-16T16:05:05;18.70;93.80
6841;DHT22;3458;53.678;14.080;2022-10-16T16:07:38;18.70;94.10
6841;DHT22;3458;53.678;14.080;2022-10-16T16:10:07;18.60;94.30
6841;DHT22;3458;53.678;14.080;2022-10-16T16:12:33;18.60;94.50
6841;DHT22;3458;53.678;14.080;2022-10-16T16:14:59;18.60;94.70
6841;DHT22;3458;53.678;14.080;2022-10-16T16:17:24;18.50;94.90
6841;DHT22;3458;53.678;14.080;2022-10-16T16:19:50;18.40;95.20
6841;DHT22;3458;53.678;14.080;2022-10-16T16:22:16;18.40;95.50
6841;DHT22;3458;53.678;14.080;2022-10-16T16:24:42;18.40;95.80
6841;DHT22;3458;53.678;14.080;2022-10-16T16:27:08;18.30;95.90
6841;DHT22;3458;53.678;14.080;2022-10-16T16:29:33;18.30;96.00
6841;DHT22;3458;53.678;14.080;2022-10-16T16:32:00;18.30;96.30
6841;DHT22;3458;53.678;14.080;2022-10-16T16:34:27;18.30;96.40
6841;DHT22;3458;53.678;14.080;2022-10-16T16:36:53;18.20;96.60
6841;DHT22;3458;53.678;14.080;2022-10-16T16:39:19;18.20;96.90
6841;DHT22;3458;53.678;14.080;2022-10-16T16:41:44;18.10;97.10
6841;DHT22;3458;53.678;14.080;2022-10-16T16:44:14;18.10;97.40
6841;DHT22;3458;53.678;14.080;2022-10-16T16:46:41;18.10;97.60
6841;DHT22;3458;53.678;14.080;2022-10-16T16:49:09;18.10;97.90
6841;DHT22;3458;53.678;14.080;2022-10-16T16:51:35;18.10;98.10
6841;DHT22;3458;53.678;14.080;2022-10-16T16:54:01;18.00;98.40
6841;DHT22;3458;53.678;14.080;2022-10-16T16:56:26;18.00;98.60
6841;DHT22;3458;53.678;14.080;2022-10-16T16:58:54;17.90;98.80
6841;DHT22;3458;53.678;14.080;2022-10-16T17:01:22;17.90;99.00
6841;DHT22;3458;53.678;14.080;2022-10-16T17:03:50;17.90;99.20
6841;DHT22;3458;53.678;14.080;2022-10-16T17:06:18;17.90;99.40